Time;durP1;ratioP1;P1;durP2;ratioP2;P2;SDS_P1;SDS_P2;PMS_P1;PMS_P2;Temp;Humidity;BMP_temperature;BMP_pressure;BME280_temperature;BME280_humidity;BME280_pressure;Samples;Min_cycle;Max_cycle;Signal;HPM_P1;HPM_P2
2022/05/07 00:00:00;;;;;;;18.65;16.65;;;;;;;9.81;99.00;101537.38;689449;28;1095;-46
2022/05/07 00:00:22;;;;;;;18.30;16.50;;;;;;;9.81;97.92;101533.00;689181;28;1391;-46
2022/05/07 00:00:43;;;;;;;18.23;16.42;;;;;;;9.86;97.58;101531.34;688893;28;4463;-45
2022/05/07 00:01:04;;;;;;;18.70;16.85;;;;;;;9.86;97.40;101528.72;690380;28;1227;-46
2022/05/07 00:01:24;;;;;;;18.73;16.83;;;;;;;9.85;98.47;101533.94;690296;28;1314;-46
2022/05/07 00:01:45;;;;;;;19.52;17.52;;;;;;;9.77;99.61;101535.56;689502;28;1202;-45
2022/05/07 00:02:06;;;;;;;18.77;16.80;;;;;;;9.71;99.46;101536.38;689856;28;1310;-46
2022/05/07 00:02:27;;;;;;;18.90;16.90;;;;;;;9.67;99.48;101529.34;690497;28;1333;-47
2022/05/07 00:02:50;;;;;;;19.33;17.27;;;;;;;9.67;99.98;101529.34;689930;28;1402;-46
2022/05/07 00:03:11;;;;;;;18.88;16.92;;;;;;;9.70;99.13;101534.63;690043;28;1333;-48
2022/05/07 00:03:31;;;;;;;18.52;16.73;;;;;;;9.74;98.19;101530.31;688713;28;1380;-45
2022/05/07 00:03:52;;;;;;;18.13;16.23;;;;;;;9.76;98.28;101534.72;685002;28;4458;-46
2022/05/07 00:04:12;;;;;;;17.65;15.85;;;;;;;9.75;97.60;101534.66;687230;28;1295;-45
2022/05/07 00:04:34;;;;;;;17.80;16.00;;;;;;;9.78;97.85;101535.59;684978;28;1347;-46
2022/05/07 00:04:54;;;;;;;18.40;16.58;;;;;;;9.82;97.86;101533.91;685342;28;1509;-48
2022/05/07 00:05:15;;;;;;;18.93;16.93;;;;;;;9.76;98.49;101529.50;681240;28;1454;-46
2022/05/07 00:05:37;;;;;;;19.02;16.95;;;;;;;9.72;99.08;101532.91;679468;28;1330;-46
2022/05/07 00:05:57;;;;;;;18.73;16.77;;;;;;;9.71;99.26;101534.63;680669;28;1236;-47
2022/05/07 00:06:18;;;;;;;19.00;17.00;;;;;;;9.69;99.41;101532.84;683102;28;1140;-46
2022/05/07 00:06:39;;;;;;;18.80;16.80;;;;;;;9.69;98.41;101527.63;685224;28;1243;-47
2022/05/07 00:07:00;;;;;;;17.85;16.05;;;;;;;9.67;99.00;101530.22;683688;28;5938;-46
2022/05/07 00:07:21;;;;;;;18.50;16.60;;;;;;;9.69;98.58;101532.84;688001;28;1986;-47
2022/05/07 00:07:41;;;;;;;18.50;16.60;;;;;;;9.70;98.78;101539.84;685459;28;1282;-46
2022/05/07 00:08:03;;;;;;;18.67;16.70;;;;;;;9.72;98.46;101535.53;684066;28;1291;-46
2022/05/07 00:08:24;;;;;;;19.13;17.00;;;;;;;9.68;99.86;101538.94;684885;28;1250;-47
2022/05/07 00:08:45;;;;;;;18.70;16.83;;;;;;;9.63;100.00;101536.25;683990;28;1349;-46
2022/05/07 00:09:06;;;;;;;18.67;16.77;;;;;;;9.58;100.00;101529.22;686059;28;2325;-46
2022/05/07 00:09:26;;;;;;;19.17;17.17;;;;;;;9.56;99.90;101526.59;687142;28;1346;-45
2022/05/07 00:09:47;;;;;;;19.00;17.10;;;;;;;9.56;99.41;101525.75;685979;28;4397;-45
2022/05/07 00:10:07;;;;;;;18.83;16.93;;;;;;;9.60;98.80;101533.63;687571;28;4489;-45
2022/05/07 00:10:28;;;;;;;18.15;16.25;;;;;;;9.65;97.99;101531.06;687672;28;1307;-46
2022/05/07 00:10:48;;;;;;;18.90;16.92;;;;;;;9.68;98.52;101531.13;685194;28;1418;-46
2022/05/07 00:11:09;;;;;;;18.80;16.90;;;;;;;9.64;99.08;101527.59;685953;28;1284;-45
2022/05/07 00:11:29;;;;;;;19.05;17.05;;;;;;;9.61;99.63;101534.47;687237;28;1264;-46
2022/05/07 00:11:50;;;;;;;19.10;17.10;;;;;;;9.56;100.00;101538.78;687769;28;1309;-46
2022/05/07 00:12:11;;;;;;;19.65;17.45;;;;;;;9.52;100.00;101525.69;688359;28;1492;-45
2022/05/07 00:12:31;;;;;;;19.65;17.55;;;;;;;9.49;100.00;101530.84;689528;28;1922;-46
2022/05/07 00:12:53;;;;;;;19.20;17.20;;;;;;;9.48;99.94;101534.31;688146;28;4480;-45
2022/05/07 00:13:13;;;;;;;19.63;17.63;;;;;;;9.53;100.00;101524.81;689976;28;1356;-46
2022/05/07 00:13:34;;;;;;;19.00;17.10;;;;;;;9.54;100.00;101528.34;690060;28;1369;-47
2022/05/07 00:13:55;;;;;;;19.10;17.15;;;;;;;9.54;99.40;101529.19;689734;28;1425;-46
2022/05/07 00:14:15;;;;;;;18.90;17.00;;;;;;;9.55;99.01;101530.06;683997;28;1458;-46
2022/05/07 00:14:36;;;;;;;19.52;17.50;;;;;;;9.49;100.00;101524.78;685227;28;1133;-46
2022/05/07 00:14:56;;;;;;;19.53;17.53;;;;;;;9.38;100.00;101532.44;684317;28;1323;-45
2022/05/07 00:15:17;;;;;;;19.25;17.30;;;;;;;9.28;100.00;101525.34;685526;28;1242;-46
2022/05/07 00:15:38;;;;;;;19.55;17.55;;;;;;;9.20;100.00;101525.22;688072;28;1303;-46
2022/05/07 00:18:01;;;;;;;21.50;19.20;;;;;;;9.16;100.00;101529.50;689551;28;1536;-46
2022/05/07 00:18:22;;;;;;;20.80;18.65;;;;;;;9.14;100.00;101533.00;689213;28;1119;-46
2022/05/07 00:18:42;;;;;;;20.30;18.30;;;;;;;9.17;100.00;101531.28;689139;28;4620;-46
2022/05/07 00:19:03;;;;;;;19.57;17.60;;;;;;;9.29;100.00;101533.22;689012;28;1243;-45
2022/05/07 00:19:24;;;;;;;19.20;17.30;;;;;;;9.31;100.00;101523.66;690522;28;1087;-46
2022/05/07 00:19:46;;;;;;;18.98;16.98;;;;;;;9.32;100.00;101524.56;689827;28;1807;-48
2022/05/07 00:20:09;;;;;;;18.70;16.70;;;;;;;9.38;99.90;101530.72;689929;28;1246;-46
2022/05/07 00:20:31;;;;;;;19.23;17.15;;;;;;;9.38;100.00;101525.47;688586;28;1458;-46
2022/05/07 00:20:51;;;;;;;20.77;18.27;;;;;;;9.32;100.00;101522.81;688799;28;1301;-46
2022/05/07 00:21:12;;;;;;;20.15;18.02;;;;;;;9.22;100.00;101530.47;690426;28;1409;-46
2022/05/07 00:21:32;;;;;;;20.10;18.00;;;;;;;9.14;100.00;101530.38;690044;28;3618;-45
2022/05/07 00:21:53;;;;;;;20.27;18.20;;;;;;;9.08;100.00;101530.25;687737;28;4281;-45
2022/05/07 00:22:14;;;;;;;19.83;17.73;;;;;;;9.14;100.00;101525.16;689158;28;1259;-47
2022/05/07 00:22:35;;;;;;;19.55;17.55;;;;;;;9.16;100.00;101534.75;689514;28;1458;-46
2022/05/07 00:22:56;;;;;;;20.33;18.23;;;;;;;9.19;100.00;101526.09;689285;28;1565;-46
2022/05/07 00:23:18;;;;;;;21.02;18.83;;;;;;;9.20;100.00;101533.94;688416;28;1115;-47
2022/05/07 00:23:39;;;;;;;20.67;18.48;;;;;;;9.23;100.00;101527.03;687000;28;1147;-52
2022/05/07 00:24:02;;;;;;;20.40;18.20;;;;;;;9.26;100.00;101534.88;687058;28;1428;-46
2022/05/07 00:24:22;;;;;;;19.52;17.42;;;;;;;9.25;100.00;101530.50;685701;28;1333;-47
2022/05/07 00:24:43;;;;;;;20.07;17.97;;;;;;;9.20;100.00;101527.84;686131;28;5339;-46
2022/05/07 00:25:03;;;;;;;20.45;18.35;;;;;;;9.19;100.00;101526.97;684266;28;1236;-46
2022/05/07 00:25:25;;;;;;;20.52;18.38;;;;;;;9.21;100.00;101524.38;684582;28;1183;-47
2022/05/07 00:25:45;;;;;;;20.63;18.35;;;;;;;9.28;100.00;101526.22;686136;28;1329;-45
2022/05/07 00:26:06;;;;;;;21.13;18.70;;;;;;;9.36;100.00;101523.75;687108;28;1200;-46
2022/05/07 00:26:26;;;;;;;20.30;18.20;;;;;;;9.39;100.00;101518.56;684542;28;1280;-46
2022/05/07 00:26:47;;;;;;;20.13;18.02;;;;;;;9.41;100.00;101527.25;684179;28;1231;-45
2022/05/07 00:27:07;;;;;;;20.60;18.40;;;;;;;9.45;100.00;101516.00;681284;28;1110;-45
2022/05/07 00:27:28;;;;;;;19.83;17.73;;;;;;;9.38;100.00;101519.41;681854;28;1957;-45
2022/05/07 00:27:48;;;;;;;20.00;17.90;;;;;;;9.27;100.00;101521.00;682019;28;6161;-45
2022/05/07 00:28:09;;;;;;;19.87;17.77;;;;;;;9.26;100.00;101521.84;681814;28;1244;-46
2022/05/07 00:28:30;;;;;;;19.90;17.80;;;;;;;9.27;100.00;101519.25;684366;28;1232;-47
2022/05/07 00:28:50;;;;;;;19.17;17.08;;;;;;;9.28;100.00;101517.53;684756;28;2281;-46
2022/05/07 00:29:11;;;;;;;19.23;17.23;;;;;;;9.35;100.00;101519.38;687456;28;1418;-47
2022/05/07 00:29:31;;;;;;;19.10;17.20;;;;;;;9.40;100.00;101519.41;686865;28;1140;-45
2022/05/07 00:29:52;;;;;;;19.33;17.43;;;;;;;9.38;100.00;101529.84;686981;28;1243;-45
2022/05/07 00:30:12;;;;;;;20.27;18.17;;;;;;;9.35;100.00;101524.59;690585;28;1420;-46
2022/05/07 00:30:34;;;;;;;20.00;17.90;;;;;;;9.36;100.00;101523.75;690499;28;1456;-45
2022/05/07 00:30:54;;;;;;;19.85;17.52;;;;;;;9.32;100.00;101521.94;688172;28;4449;-46
2022/05/07 00:31:15;;;;;;;19.85;17.75;;;;;;;9.26;100.00;101520.09;689195;28;1503;-45
2022/05/07 00:31:35;;;;;;;19.03;17.00;;;;;;;9.20;100.00;101522.63;688731;28;1528;-45
2022/05/07 00:31:56;;;;;;;19.33;17.20;;;;;;;9.18;100.00;101525.22;689873;28;1464;-46
2022/05/07 00:32:17;;;;;;;20.03;17.93;;;;;;;9.18;100.00;101519.13;686502;28;1127;-45
2022/05/07 00:32:37;;;;;;;20.42;18.23;;;;;;;9.16;100.00;101516.47;687812;28;1185;-46
2022/05/07 00:32:57;;;;;;;20.30;18.20;;;;;;;9.14;100.00;101526.03;688866;28;1089;-50
2022/05/07 00:33:18;;;;;;;20.20;18.00;;;;;;;9.10;100.00;101524.22;687877;28;1670;-47
2022/05/07 00:33:38;;;;;;;20.00;17.73;;;;;;;9.07;100.00;101531.13;687132;28;1103;-47
2022/05/07 00:33:59;;;;;;;19.92;17.73;;;;;;;9.02;100.00;101518.88;687445;28;4314;-46
2022/05/07 00:34:21;;;;;;;20.70;18.57;;;;;;;8.99;100.00;101523.19;689381;28;1163;-46
2022/05/07 00:34:43;;;;;;;20.23;18.13;;;;;;;9.00;100.00;101524.94;689366;28;1339;-47
2022/05/07 00:35:04;;;;;;;19.67;17.67;;;;;;;8.96;100.00;101523.16;686817;28;1180;-46
2022/05/07 00:35:24;;;;;;;19.90;17.80;;;;;;;8.92;100.00;101521.34;687615;28;1430;-47
2022/05/07 00:35:45;;;;;;;19.90;17.80;;;;;;;8.91;100.00;101527.41;688065;28;1320;-47
2022/05/07 00:36:06;;;;;;;20.00;17.90;;;;;;;8.92;100.00;101521.34;688038;28;1163;-47
2022/05/07 00:36:27;;;;;;;20.42;17.83;;;;;;;8.92;100.00;101522.22;687527;28;1439;-46
2022/05/07 00:36:49;;;;;;;20.50;18.27;;;;;;;8.95;100.00;101519.66;686562;28;4322;-46
2022/05/07 00:37:11;;;;;;;19.48;17.38;;;;;;;8.99;100.00;101523.19;690339;28;1078;-45
2022/05/07 00:37:31;;;;;;;19.70;17.00;;;;;;;9.03;100.00;101525.84;689824;28;1346;-45
2022/05/07 00:37:52;;;;;;;20.67;17.47;;;;;;;9.08;100.00;101522.44;690853;28;1239;-45
2022/05/07 00:38:12;;;;;;;19.23;17.15;;;;;;;9.14;100.00;101520.81;690929;28;1459;-46
2022/05/07 00:38:33;;;;;;;18.95;16.95;;;;;;;9.15;100.00;101525.19;693465;28;1349;-46
2022/05/07 00:38:54;;;;;;;20.20;17.38;;;;;;;9.14;100.00;101523.41;691192;28;1270;-46
2022/05/07 00:39:14;;;;;;;19.87;17.30;;;;;;;9.18;100.00;101519.13;688242;28;1432;-46
2022/05/07 00:39:34;;;;;;;19.47;17.40;;;;;;;9.17;100.00;101515.63;689738;28;2026;-46
2022/05/07 00:39:55;;;;;;;20.13;18.00;;;;;;;9.10;100.00;101516.41;687890;28;4599;-46
2022/05/07 00:40:15;;;;;;;20.53;18.03;;;;;;;9.02;100.00;101518.88;690952;28;1484;-46
2022/05/07 00:40:36;;;;;;;20.52;18.35;;;;;;;8.97;100.00;101524.88;686718;28;1500;-46
2022/05/07 00:40:59;;;;;;;20.60;18.40;;;;;;;8.95;100.00;101519.66;684860;28;1314;-46
2022/05/07 00:41:21;;;;;;;20.88;18.60;;;;;;;8.92;100.00;101521.34;684737;28;1066;-46
2022/05/07 00:41:42;;;;;;;20.35;18.23;;;;;;;8.96;100.00;101517.94;685134;28;1057;-46
2022/05/07 00:42:06;;;;;;;19.75;17.65;;;;;;;8.99;100.00;101515.38;684344;28;1424;-46
2022/05/07 00:42:27;;;;;;;20.08;17.98;;;;;;;8.94;100.00;101517.88;685763;28;1192;-45
2022/05/07 00:42:47;;;;;;;20.67;18.50;;;;;;;8.90;100.00;101517.81;684502;28;4441;-46
2022/05/07 00:43:08;;;;;;;20.87;18.67;;;;;;;8.87;100.00;101516.03;687269;28;1321;-46
2022/05/07 00:43:36;;;;;;;20.67;18.42;;;;;;;8.92;100.00;101513.53;687597;28;1408;-46
2022/05/07 00:43:56;;;;;;;20.85;18.17;;;;;;;8.91;100.00;101519.59;687816;28;2219;-46
2022/05/07 00:44:17;;;;;;;20.87;18.13;;;;;;;8.88;100.00;101516.94;687806;28;1369;-46
2022/05/07 00:44:37;;;;;;;22.23;18.00;;;;;;;8.89;100.00;101516.94;688623;28;1235;-46
2022/05/07 00:44:58;;;;;;;21.83;17.90;;;;;;;8.93;100.00;101517.84;689646;28;1129;-47
2022/05/07 00:45:18;;;;;;;20.00;17.45;;;;;;;8.96;100.00;101515.31;688859;28;1191;-46
2022/05/07 00:45:38;;;;;;;20.13;17.90;;;;;;;8.94;100.00;101515.28;686493;28;1673;-45
2022/05/07 00:45:59;;;;;;;20.50;18.00;;;;;;;8.92;100.00;101509.16;687146;28;4415;-46
2022/05/07 00:46:24;;;;;;;21.08;17.92;;;;;;;8.96;100.00;101516.19;687990;28;1433;-47
2022/05/07 00:46:48;;;;;;;19.63;17.15;;;;;;;9.02;100.00;101516.28;688996;28;1618;-45
2022/05/07 00:47:14;;;;;;;20.80;17.23;;;;;;;8.99;100.00;101513.63;689157;28;1296;-45
2022/05/07 00:47:35;;;;;;;22.15;18.30;;;;;;;8.97;100.00;101506.63;689452;28;1187;-45
2022/05/07 00:47:56;;;;;;;20.30;18.08;;;;;;;9.02;100.00;101518.00;684547;28;1281;-45
2022/05/07 00:48:17;;;;;;;20.23;17.40;;;;;;;9.07;100.00;101515.47;684352;28;1231;-46
2022/05/07 00:48:37;;;;;;;19.30;17.25;;;;;;;9.10;100.00;101518.16;685599;28;1144;-46
2022/05/07 00:48:58;;;;;;;18.90;16.90;;;;;;;9.12;100.00;101511.19;685090;28;4431;-47
2022/05/07 00:49:19;;;;;;;18.27;16.27;;;;;;;9.15;100.00;101512.13;687937;28;1183;-46
2022/05/07 00:49:51;;;;;;;19.08;16.98;;;;;;;9.06;100.00;101514.59;689495;28;1380;-46
2022/05/07 00:51:34;;;;;;;20.88;17.88;;;;;;;8.97;100.00;101506.63;686734;28;1467;-46
2022/05/07 00:51:54;;;;;;;20.70;17.70;;;;;;;8.99;100.00;101515.38;685647;28;4495;-45
2022/05/07 00:52:16;;;;;;;21.05;17.52;;;;;;;9.08;100.00;101518.09;684814;28;1712;-46
2022/05/07 00:52:36;;;;;;;20.90;17.30;;;;;;;9.12;100.00;101506.84;688327;28;1229;-45
2022/05/07 00:52:57;;;;;;;20.13;17.40;;;;;;;9.10;100.00;101513.78;683529;28;1210;-45
2022/05/07 00:53:17;;;;;;;20.30;17.80;;;;;;;9.07;100.00;101511.16;682949;28;1550;-46
2022/05/07 00:53:38;;;;;;;20.30;17.77;;;;;;;9.06;100.00;101513.72;681753;28;1329;-47
2022/05/07 00:54:01;;;;;;;20.05;17.77;;;;;;;9.09;100.00;101511.16;680166;28;2089;-45
2022/05/07 00:54:23;;;;;;;19.52;17.30;;;;;;;9.12;100.00;101509.47;682590;28;1402;-46
2022/05/07 00:54:44;;;;;;;20.15;17.00;;;;;;;9.15;100.00;101514.75;682126;28;4307;-46
2022/05/07 00:55:05;;;;;;;19.55;17.10;;;;;;;9.16;100.00;101500.81;683203;28;1385;-45
2022/05/07 00:55:28;;;;;;;19.15;17.13;;;;;;;9.16;100.00;101508.66;683027;28;1172;-45
2022/05/07 00:55:50;;;;;;;19.67;17.48;;;;;;;9.12;100.00;101504.25;686241;28;1562;-47
2022/05/07 00:56:12;;;;;;;20.27;17.38;;;;;;;9.09;100.00;101512.03;687175;28;1223;-46
2022/05/07 00:56:32;;;;;;;20.35;17.85;;;;;;;9.02;100.00;101512.78;687526;28;1239;-45
2022/05/07 00:56:53;;;;;;;20.10;18.02;;;;;;;8.96;100.00;101512.72;685213;28;1286;-46
2022/05/07 00:57:15;;;;;;;19.60;17.50;;;;;;;8.98;100.00;101511.84;681374;28;2323;-44
2022/05/07 00:57:36;;;;;;;21.17;17.30;;;;;;;9.02;100.00;101512.78;680171;28;1405;-46
2022/05/07 00:57:57;;;;;;;19.50;17.33;;;;;;;9.06;100.00;101505.91;681666;28;4622;-47
2022/05/07 00:58:18;;;;;;;18.90;16.90;;;;;;;9.10;100.00;101508.56;679685;29;1347;-46
2022/05/07 00:58:39;;;;;;;18.63;16.60;;;;;;;9.12;100.00;101509.47;682531;28;1247;-46
2022/05/07 00:59:00;;;;;;;18.83;16.73;;;;;;;9.10;100.00;101511.19;681443;28;1517;-46
2022/05/07 00:59:20;;;;;;;19.77;17.67;;;;;;;9.09;100.00;101509.41;684608;28;1465;-45
2022/05/07 00:59:42;;;;;;;19.92;17.92;;;;;;;9.07;100.00;101515.47;687913;28;1652;-46
2022/05/07 01:00:05;;;;;;;20.23;18.10;;;;;;;9.01;100.00;101506.72;686001;28;1429;-46
2022/05/07 01:00:25;;;;;;;20.08;17.65;;;;;;;8.99;100.00;101505.81;685796;28;1413;-45
2022/05/07 01:00:46;;;;;;;20.63;18.43;;;;;;;8.98;100.00;101506.63;684662;28;4380;-46
2022/05/07 01:01:07;;;;;;;20.30;17.60;;;;;;;9.03;100.00;101511.94;688638;28;1028;-46
2022/05/07 01:01:27;;;;;;;20.10;17.30;;;;;;;9.08;100.00;101506.78;686421;28;1444;-46
2022/05/07 01:01:48;;;;;;;19.75;17.65;;;;;;;9.10;100.00;101507.72;681074;28;1212;-47
2022/05/07 01:02:08;;;;;;;20.10;18.00;;;;;;;9.07;100.00;101510.25;680912;28;1324;-47
2022/05/07 01:02:29;;;;;;;21.00;18.80;;;;;;;9.05;100.00;101505.00;682478;28;1262;-46
2022/05/07 01:02:49;;;;;;;20.17;18.17;;;;;;;9.07;100.00;101516.38;682284;28;1386;-46
2022/05/07 01:03:10;;;;;;;18.77;16.88;;;;;;;9.10;100.00;101510.31;681701;28;1243;-47
2022/05/07 01:03:31;;;;;;;18.40;16.50;;;;;;;9.16;100.00;101507.78;683987;28;1116;-47
2022/05/07 01:03:52;;;;;;;18.52;16.63;;;;;;;9.19;100.00;101508.72;679216;28;4828;-46
2022/05/07 01:04:13;;;;;;;19.08;16.40;;;;;;;9.19;100.00;101511.31;684812;28;1263;-46
2022/05/07 01:04:34;;;;;;;18.70;16.70;;;;;;;9.25;99.33;101509.63;683055;28;1407;-46
2022/05/07 01:04:54;;;;;;;18.63;16.63;;;;;;;9.29;99.09;101506.22;682158;28;1141;-46
2022/05/07 01:05:15;;;;;;;18.95;16.95;;;;;;;9.24;100.00;101503.56;684966;28;1781;-48
2022/05/07 01:05:36;;;;;;;19.98;17.88;;;;;;;9.18;100.00;101506.97;685434;28;1763;-47
2022/05/07 01:05:56;;;;;;;20.02;17.92;;;;;;;9.13;100.00;101502.53;687283;28;1297;-46
2022/05/07 01:06:17;;;;;;;20.10;18.00;;;;;;;9.09;100.00;101504.19;687701;28;1194;-46
2022/05/07 01:06:38;;;;;;;20.40;18.23;;;;;;;9.05;100.00;101502.41;688650;28;1221;-46
2022/05/07 01:07:02;;;;;;;19.58;17.55;;;;;;;9.06;100.00;101498.94;689677;28;6347;-45
2022/05/07 01:07:23;;;;;;;19.85;17.83;;;;;;;9.09;100.00;101504.19;686078;28;1956;-46
2022/05/07 01:07:45;;;;;;;19.63;17.73;;;;;;;9.06;100.00;101508.50;682117;28;1137;-46
2022/05/07 01:08:10;;;;;;;19.83;17.73;;;;;;;9.02;100.00;101507.59;681472;28;1478;-46
2022/05/07 01:08:32;;;;;;;19.98;17.95;;;;;;;8.99;100.00;101500.59;679440;28;1275;-46
2022/05/07 01:08:53;;;;;;;20.23;18.02;;;;;;;8.98;100.00;101504.03;676289;29;1868;-48
2022/05/07 01:09:14;;;;;;;19.98;17.85;;;;;;;8.96;100.00;101507.50;676817;29;1410;-46
2022/05/07 01:09:38;;;;;;;19.38;17.30;;;;;;;8.99;100.00;101497.09;677111;29;2079;-46
2022/05/07 01:09:59;;;;;;;20.20;18.10;;;;;;;9.08;100.00;101501.56;675656;29;4462;-45
2022/05/07 01:10:21;;;;;;;20.55;18.33;;;;;;;9.08;100.00;101499.84;679607;29;1373;-46
2022/05/07 01:10:42;;;;;;;20.23;18.13;;;;;;;9.09;100.00;101509.41;680272;28;1441;-46
2022/05/07 01:11:03;;;;;;;19.63;17.63;;;;;;;9.06;100.00;101498.94;679587;29;1248;-46
2022/05/07 01:11:24;;;;;;;19.20;17.20;;;;;;;9.06;100.00;101500.69;679801;28;1480;-46
2022/05/07 01:11:50;;;;;;;19.55;17.50;;;;;;;8.99;100.00;101497.09;680237;28;1307;-46
2022/05/07 01:12:12;;;;;;;20.05;18.05;;;;;;;8.96;100.00;101502.28;681202;28;1224;-47
2022/05/07 01:12:33;;;;;;;20.20;18.20;;;;;;;8.93;100.00;101497.91;682322;28;1224;-45
2022/05/07 01:12:57;;;;;;;19.80;17.83;;;;;;;8.89;100.00;101501.31;685122;28;4329;-45
2022/05/07 01:13:19;;;;;;;20.67;18.55;;;;;;;8.80;100.00;101502.03;688552;28;1590;-46
2022/05/07 01:13:41;;;;;;;21.75;19.45;;;;;;;8.80;100.00;101504.63;689462;28;1262;-46
2022/05/07 01:14:01;;;;;;;20.30;18.20;;;;;;;8.84;100.00;101508.16;686990;28;1287;-46
2022/05/07 01:14:24;;;;;;;20.00;17.85;;;;;;;8.87;100.00;101500.38;686870;28;1350;-46
2022/05/07 01:14:46;;;;;;;19.25;17.25;;;;;;;8.91;100.00;101494.38;686332;28;1263;-46
2022/05/07 01:15:07;;;;;;;19.83;17.80;;;;;;;8.88;100.00;101499.53;679539;28;1168;-46
2022/05/07 01:15:29;;;;;;;21.15;18.98;;;;;;;8.90;100.00;101492.59;681605;28;1454;-45
2022/05/07 01:15:54;;;;;;;20.05;17.92;;;;;;;8.94;100.00;101498.75;680145;28;4313;-45
2022/05/07 01:16:15;;;;;;;20.00;17.73;;;;;;;8.92;100.00;101495.28;683684;28;1256;-45
2022/05/07 01:16:36;;;;;;;20.20;17.70;;;;;;;8.93;100.00;101497.91;687741;28;1300;-46
2022/05/07 01:16:57;;;;;;;19.77;17.67;;;;;;;8.95;100.00;101495.31;687582;28;1093;-45
2022/05/07 01:17:18;;;;;;;20.27;18.17;;;;;;;8.94;100.00;101498.75;687681;28;1314;-46
2022/05/07 01:17:38;;;;;;;19.75;17.67;;;;;;;8.94;100.00;101493.53;686002;28;3720;-45
2022/05/07 01:18:04;;;;;;;19.77;17.67;;;;;;;8.88;100.00;101502.16;684777;28;1445;-46
2022/05/07 01:18:25;;;;;;;20.05;17.95;;;;;;;8.82;100.00;101497.72;686195;28;1379;-46
2022/05/07 01:18:45;;;;;;;19.85;17.80;;;;;;;8.86;100.00;101498.63;685468;28;4423;-46
2022/05/07 01:19:07;;;;;;;19.70;17.60;;;;;;;8.86;100.00;101496.03;686618;28;1450;-45
2022/05/07 01:19:27;;;;;;;19.58;17.48;;;;;;;8.96;100.00;101492.72;684541;28;1217;-46
2022/05/07 01:19:51;;;;;;;18.77;16.77;;;;;;;9.02;100.00;101491.94;684172;28;1399;-45
2022/05/07 01:20:13;;;;;;;19.58;17.48;;;;;;;9.02;100.00;101491.94;685294;28;1116;-47
2022/05/07 01:20:35;;;;;;;19.45;17.33;;;;;;;8.97;100.00;101491.88;686063;28;1388;-45
2022/05/07 01:20:57;;;;;;;18.80;16.83;;;;;;;9.02;100.00;101489.31;686636;28;1204;-45
2022/05/07 01:21:18;;;;;;;19.75;17.27;;;;;;;9.10;100.00;101497.28;687214;28;1477;-45
2022/05/07 01:21:41;;;;;;;19.92;17.55;;;;;;;9.05;100.00;101491.97;687259;28;4531;-45
2022/05/07 01:22:02;;;;;;;19.83;17.52;;;;;;;9.01;100.00;101490.16;685093;28;1405;-45
2022/05/07 01:22:24;;;;;;;19.55;17.45;;;;;;;9.02;100.00;101491.94;684755;28;1295;-46
2022/05/07 01:22:46;;;;;;;19.60;17.50;;;;;;;9.00;100.00;101486.69;687801;28;1453;-47
2022/05/07 01:23:13;;;;;;;19.77;17.05;;;;;;;8.99;100.00;101487.53;689443;28;1371;-46
2022/05/07 01:23:34;;;;;;;19.95;17.02;;;;;;;9.02;100.00;101490.19;689142;28;1191;-45
2022/05/07 01:23:55;;;;;;;19.20;16.90;;;;;;;9.02;100.00;101486.72;690940;28;1063;-46
2022/05/07 01:24:20;;;;;;;18.75;16.52;;;;;;;8.99;100.00;101484.06;689946;28;1210;-45
2022/05/07 01:24:40;;;;;;;19.33;16.90;;;;;;;8.96;100.00;101489.25;685879;28;4529;-45
2022/05/07 01:25:01;;;;;;;18.97;16.93;;;;;;;8.93;100.00;101492.69;686559;28;1307;-45
2022/05/07 01:25:21;;;;;;;19.60;17.60;;;;;;;8.91;100.00;101493.50;684837;28;1793;-46
2022/05/07 01:25:42;;;;;;;19.30;17.30;;;;;;;8.89;100.00;101489.97;682359;28;1069;-45
2022/05/07 01:26:03;;;;;;;19.37;17.23;;;;;;;8.93;100.00;101487.47;684059;28;1329;-46
2022/05/07 01:26:27;;;;;;;20.33;18.23;;;;;;;8.94;99.90;101488.34;681477;28;1427;-44
2022/05/07 01:26:49;;;;;;;19.73;17.63;;;;;;;8.91;100.00;101488.28;684588;28;1736;-45
2022/05/07 01:27:10;;;;;;;19.47;17.47;;;;;;;8.85;100.00;101489.94;684206;28;1199;-47
2022/05/07 01:27:30;;;;;;;19.50;17.50;;;;;;;8.86;100.00;101490.81;684229;28;1977;-46
2022/05/07 01:27:51;;;;;;;19.08;17.10;;;;;;;8.86;100.00;101494.31;679408;28;4385;-46
2022/05/07 01:28:11;;;;;;;20.03;17.80;;;;;;;8.86;100.00;101490.81;681255;28;1259;-45
2022/05/07 01:28:32;;;;;;;20.50;18.00;;;;;;;8.79;100.00;101483.75;682977;28;1300;-46
2022/05/07 01:29:03;;;;;;;19.83;17.40;;;;;;;8.82;100.00;101491.59;685306;28;1491;-45
2022/05/07 01:29:26;;;;;;;19.58;17.48;;;;;;;8.83;100.00;101494.28;685435;28;2017;-46
2022/05/07 01:29:47;;;;;;;19.63;17.57;;;;;;;8.89;100.00;101487.38;688184;28;1441;-45
2022/05/07 01:30:08;;;;;;;19.15;17.08;;;;;;;8.91;100.00;101488.28;686860;28;1247;-46
2022/05/07 01:30:30;;;;;;;18.92;16.92;;;;;;;8.92;100.00;101490.06;687528;28;1525;-47
2022/05/07 01:30:51;;;;;;;19.37;17.37;;;;;;;8.89;100.00;101487.38;681696;28;4466;-47
2022/05/07 01:31:12;;;;;;;20.13;18.02;;;;;;;8.84;100.00;101490.78;678806;28;1351;-45
2022/05/07 01:31:32;;;;;;;20.38;18.15;;;;;;;8.79;100.00;101489.84;682418;28;1386;-45
2022/05/07 01:31:53;;;;;;;20.00;17.97;;;;;;;8.77;100.00;101486.34;684862;28;1462;-45
2022/05/07 01:32:13;;;;;;;19.77;17.77;;;;;;;8.69;100.00;101494.06;684241;28;1343;-47
2022/05/07 01:32:34;;;;;;;21.35;19.05;;;;;;;8.65;100.00;101493.97;687059;28;1180;-45
2022/05/07 01:32:54;;;;;;;21.20;19.00;;;;;;;8.61;100.00;101489.53;684136;28;1193;-45
2022/05/07 01:33:16;;;;;;;19.73;17.63;;;;;;;8.61;100.00;101497.38;684556;28;1191;-45
2022/05/07 01:33:38;;;;;;;19.63;17.45;;;;;;;8.67;100.00;101500.09;681325;28;1262;-46
2022/05/07 01:34:03;;;;;;;21.42;18.63;;;;;;;8.64;100.00;101495.69;673696;29;5066;-46
2022/05/07 01:34:25;;;;;;;21.75;18.48;;;;;;;8.64;100.00;101493.09;678338;29;1170;-45
2022/05/07 01:34:48;;;;;;;20.15;17.77;;;;;;;8.67;100.00;101500.09;678561;28;1496;-46
2022/05/07 01:35:09;;;;;;;19.52;17.45;;;;;;;8.70;100.00;101494.91;681508;28;1405;-45
2022/05/07 01:35:30;;;;;;;21.65;18.42;;;;;;;8.65;100.00;101493.97;681081;28;1633;-45
2022/05/07 01:35:50;;;;;;;20.97;18.73;;;;;;;8.64;100.00;101489.59;682194;28;1571;-45
2022/05/07 01:36:13;;;;;;;20.95;18.75;;;;;;;8.64;100.00;101494.78;685712;28;1187;-45
2022/05/07 01:36:36;;;;;;;19.35;17.35;;;;;;;8.62;100.00;101489.56;687125;28;1272;-46
2022/05/07 01:37:01;;;;;;;20.35;18.20;;;;;;;8.61;100.00;101495.66;686479;28;6110;-45
2022/05/07 01:37:23;;;;;;;20.00;17.95;;;;;;;8.57;100.00;101492.94;682579;28;1331;-45
2022/05/07 01:37:43;;;;;;;20.33;18.33;;;;;;;8.54;100.00;101491.16;680418;28;1996;-45
2022/05/07 01:38:05;;;;;;;20.65;18.55;;;;;;;8.57;100.00;101492.94;680653;28;1125;-45
2022/05/07 01:38:30;;;;;;;20.13;18.02;;;;;;;8.58;100.00;101490.38;682851;28;1262;-46
2022/05/07 01:38:51;;;;;;;22.25;18.90;;;;;;;8.52;100.00;101491.13;681326;28;1497;-45
2022/05/07 01:39:12;;;;;;;21.52;18.63;;;;;;;8.54;100.00;101492.91;678203;28;1908;-45
2022/05/07 01:39:32;;;;;;;20.27;18.10;;;;;;;8.51;100.00;101489.41;679531;28;1306;-45
2022/05/07 01:39:54;;;;;;;21.42;18.95;;;;;;;8.46;100.00;101490.16;685828;28;4311;-45
2022/05/07 01:40:15;;;;;;;21.92;18.95;;;;;;;8.42;100.00;101486.59;688019;28;1419;-46
2022/05/07 01:40:39;;;;;;;20.70;18.50;;;;;;;8.37;100.00;101490.84;684009;28;1674;-45
2022/05/07 01:41:03;;;;;;;21.15;18.52;;;;;;;8.32;100.00;101487.28;680542;28;1263;-45
2022/05/07 01:41:23;;;;;;;21.60;19.05;;;;;;;8.37;100.00;101488.25;681144;28;1254;-46
2022/05/07 01:41:45;;;;;;;20.98;18.77;;;;;;;8.46;100.00;101484.94;681032;28;1536;-45
2022/05/07 01:42:05;;;;;;;19.95;17.92;;;;;;;8.57;100.00;101491.25;678755;29;1279;-45
2022/05/07 01:42:27;;;;;;;19.80;17.80;;;;;;;8.60;100.00;101488.69;680995;28;2365;-45
2022/05/07 01:42:47;;;;;;;19.20;17.25;;;;;;;8.62;100.00;101486.09;681755;28;4583;-44